sensor_id;sensor_type;location;lat;lon;timestamp;P1;P2;P0
69350;PMS7003;57106;51.446;-2.606;2023-12-20T00:01:14;3;3;
69350;PMS7003;57106;51.446;-2.606;2023-12-20T00:10:57;2;2;
69350;PMS7003;57106;51.446;-2.606;2023-12-20T00:13:23;6;4;
69350;PMS7003;57106;51.446;-2.606;2023-12-20T00:15:48;4;3;
69350;PMS7003;57106;51.446;-2.606;2023-12-20T00:18:14;5;4;
69350;PMS7003;57106;51.446;-2.606;2023-12-20T00:20:40;5;3;
69350;PMS7003;57106;51.446;-2.606;2023-12-20T00:23:05;3;3;
69350;PMS7003;57106;51.446;-2.606;2023-12-20T00:25:31;3;2;
69350;PMS7003;57106;51.446;-2.606;2023-12-20T00:27:56;4;2;
69350;PMS7003;57106;51.446;-2.606;2023-12-20T00:30:22;4;3;
69350;PMS7003;57106;51.446;-2.606;2023-12-20T00:32:48;4;3;
69350;PMS7003;57106;51.446;-2.606;2023-12-20T00:35:13;6;2;
69350;PMS7003;57106;51.446;-2.606;2023-12-20T00:37:39;2;2;
69350;PMS7003;57106;51.446;-2.606;2023-12-20T00:40:05;2;1;
69350;PMS7003;57106;51.446;-2.606;2023-12-20T00:42:30;7;4;
69350;PMS7003;57106;51.446;-2.606;2023-12-20T00:44:56;8;6;
69350;PMS7003;57106;51.446;-2.606;2023-12-20T00:47:22;8;4;
69350;PMS7003;57106;51.446;-2.606;2023-12-20T00:49:47;2;2;
69350;PMS7003;57106;51.446;-2.606;2023-12-20T00:52:13;3;3;
69350;PMS7003;57106;51.446;-2.606;2023-12-20T00:54:39;3;3;
69350;PMS7003;57106;51.446;-2.606;2023-12-20T01:09:13;3;3;
69350;PMS7003;57106;51.446;-2.606;2023-12-20T01:11:38;1;1;
69350;PMS7003;57106;51.446;-2.606;2023-12-20T01:14:04;1;1;
69350;PMS7003;57106;51.446;-2.606;2023-12-20T01:16:30;6;2;
69350;PMS7003;57106;51.446;-2.606;2023-12-20T01:21:21;5;2;
69350;PMS7003;57106;51.446;-2.606;2023-12-20T01:23:47;3;3;
69350;PMS7003;57106;51.446;-2.606;2023-12-20T01:26:12;5;4;
69350;PMS7003;57106;51.446;-2.606;2023-12-20T01:28:38;3;3;
69350;PMS7003;57106;51.446;-2.606;2023-12-20T01:31:04;5;3;
69350;PMS7003;57106;51.446;-2.606;2023-12-20T01:33:34;4;2;
69350;PMS7003;57106;51.446;-2.606;2023-12-20T01:35:55;3;2;
69350;PMS7003;57106;51.446;-2.606;2023-12-20T01:38:21;3;3;
69350;PMS7003;57106;51.446;-2.606;2023-12-20T01:40:47;2;1;
69350;PMS7003;57106;51.446;-2.606;2023-12-20T01:43:12;3;3;
69350;PMS7003;57106;51.446;-2.606;2023-12-20T01:45:38;5;3;
69350;PMS7003;57106;51.446;-2.606;2023-12-20T01:48:05;3;2;
69350;PMS7003;57106;51.446;-2.606;2023-12-20T01:50:34;1;1;
69350;PMS7003;57106;51.446;-2.606;2023-12-20T01:52:55;2;2;
69350;PMS7003;57106;51.446;-2.606;2023-12-20T01:55:21;2;2;
69350;PMS7003;57106;51.446;-2.606;2023-12-20T01:57:46;3;3;
69350;PMS7003;57106;51.446;-2.606;2023-12-20T02:00:16;2;2;
69350;PMS7003;57106;51.446;-2.606;2023-12-20T02:02:38;6;3;
69350;PMS7003;57106;51.446;-2.606;2023-12-20T02:05:03;1;1;
69350;PMS7003;57106;51.446;-2.606;2023-12-20T02:07:29;3;2;
69350;PMS7003;57106;51.446;-2.606;2023-12-20T02:09:54;1;1;
69350;PMS7003;57106;51.446;-2.606;2023-12-20T02:12:20;4;1;
69350;PMS7003;57106;51.446;-2.606;2023-12-20T02:14:46;2;2;
69350;PMS7003;57106;51.446;-2.606;2023-12-20T02:17:11;3;1;
69350;PMS7003;57106;51.446;-2.606;2023-12-20T02:19:37;1;1;
69350;PMS7003;57106;51.446;-2.606;2023-12-20T02:22:07;3;2;
69350;PMS7003;57106;51.446;-2.606;2023-12-20T02:24:28;3;2;
69350;PMS7003;57106;51.446;-2.606;2023-12-20T02:26:54;1;1;
69350;PMS7003;57106;51.446;-2.606;2023-12-20T02:29:20;1;1;
69350;PMS7003;57106;51.446;-2.606;2023-12-20T02:31:45;1;1;
69350;PMS7003;57106;51.446;-2.606;2023-12-20T02:36:37;3;0;
69350;PMS7003;57106;51.446;-2.606;2023-12-20T02:39:03;4;3;
69350;PMS7003;57106;51.446;-2.606;2023-12-20T02:41:28;3;1;
69350;PMS7003;57106;51.446;-2.606;2023-12-20T02:43:54;1;1;
69350;PMS7003;57106;51.446;-2.606;2023-12-20T02:46:19;3;2;
69350;PMS7003;57106;51.446;-2.606;2023-12-20T02:51:11;2;1;
69350;PMS7003;57106;51.446;-2.606;2023-12-20T02:53:36;2;2;
69350;PMS7003;57106;51.446;-2.606;2023-12-20T02:56:02;3;1;
69350;PMS7003;57106;51.446;-2.606;2023-12-20T02:58:27;2;2;
69350;PMS7003;57106;51.446;-2.606;2023-12-20T03:00:53;5;2;
69350;PMS7003;57106;51.446;-2.606;2023-12-20T03:03:19;2;1;
69350;PMS7003;57106;51.446;-2.606;2023-12-20T03:05:45;5;1;
69350;PMS7003;57106;51.446;-2.606;2023-12-20T03:08:10;1;1;
69350;PMS7003;57106;51.446;-2.606;2023-12-20T03:10:36;5;3;
69350;PMS7003;57106;51.446;-2.606;2023-12-20T03:13:01;2;1;
69350;PMS7003;57106;51.446;-2.606;2023-12-20T03:15:27;4;1;
69350;PMS7003;57106;51.446;-2.606;2023-12-20T03:17:52;3;2;
69350;PMS7003;57106;51.446;-2.606;2023-12-20T03:20:18;6;3;
69350;PMS7003;57106;51.446;-2.606;2023-12-20T03:22:44;3;2;
69350;PMS7003;57106;51.446;-2.606;2023-12-20T03:25:09;3;1;
69350;PMS7003;57106;51.446;-2.606;2023-12-20T03:27:37;2;2;
69350;PMS7003;57106;51.446;-2.606;2023-12-20T03:30:00;1;1;
69350;PMS7003;57106;51.446;-2.606;2023-12-20T03:32:26;4;1;
69350;PMS7003;57106;51.446;-2.606;2023-12-20T03:34:51;2;2;
69350;PMS7003;57106;51.446;-2.606;2023-12-20T03:37:17;2;1;
69350;PMS7003;57106;51.446;-2.606;2023-12-20T03:39:44;3;2;
69350;PMS7003;57106;51.446;-2.606;2023-12-20T03:42:08;3;2;
69350;PMS7003;57106;51.446;-2.606;2023-12-20T03:44:34;5;2;
69350;PMS7003;57106;51.446;-2.606;2023-12-20T03:47:00;5;2;
69350;PMS7003;57106;51.446;-2.606;2023-12-20T03:51:52;1;1;
69350;PMS7003;57106;51.446;-2.606;2023-12-20T03:54:17;4;2;
69350;PMS7003;57106;51.446;-2.606;2023-12-20T03:56:42;2;2;
69350;PMS7003;57106;51.446;-2.606;2023-12-20T03:59:08;3;2;
69350;PMS7003;57106;51.446;-2.606;2023-12-20T04:01:33;1;1;
69350;PMS7003;57106;51.446;-2.606;2023-12-20T04:03:59;2;2;
69350;PMS7003;57106;51.446;-2.606;2023-12-20T04:06:25;7;3;
69350;PMS7003;57106;51.446;-2.606;2023-12-20T04:08:50;2;2;
69350;PMS7003;57106;51.446;-2.606;2023-12-20T04:11:16;1;1;
69350;PMS7003;57106;51.446;-2.606;2023-12-20T04:13:41;8;3;
69350;PMS7003;57106;51.446;-2.606;2023-12-20T04:16:08;5;3;
69350;PMS7003;57106;51.446;-2.606;2023-12-20T04:18:39;4;3;
69350;PMS7003;57106;51.446;-2.606;2023-12-20T04:20:58;3;3;
69350;PMS7003;57106;51.446;-2.606;2023-12-20T04:23:24;4;3;
69350;PMS7003;57106;51.446;-2.606;2023-12-20T04:25:50;6;2;
69350;PMS7003;57106;51.446;-2.606;2023-12-20T04:28:15;5;3;
69350;PMS7003;57106;51.446;-2.606;2023-12-20T04:30:41;5;2;
69350;PMS7003;57106;51.446;-2.606;2023-12-20T04:33:06;4;3;
69350;PMS7003;57106;51.446;-2.606;2023-12-20T04:35:32;3;3;
69350;PMS7003;57106;51.446;-2.606;2023-12-20T04:37:58;3;3;
69350;PMS7003;57106;51.446;-2.606;2023-12-20T04:40:23;3;2;
69350;PMS7003;57106;51.446;-2.606;2023-12-20T04:42:49;3;2;
69350;PMS7003;57106;51.446;-2.606;2023-12-20T04:45:15;3;2;
69350;PMS7003;57106;51.446;-2.606;2023-12-20T04:47:41;2;2;
69350;PMS7003;57106;51.446;-2.606;2023-12-20T04:50:06;2;1;
69350;PMS7003;57106;51.446;-2.606;2023-12-20T04:52:34;6;2;
69350;PMS7003;57106;51.446;-2.606;2023-12-20T04:54:57;4;2;
69350;PMS7003;57106;51.446;-2.606;2023-12-20T04:57:23;2;2;
69350;PMS7003;57106;51.446;-2.606;2023-12-20T04:59:48;7;3;
69350;PMS7003;57106;51.446;-2.606;2023-12-20T05:02:14;3;2;
69350;PMS7003;57106;51.446;-2.606;2023-12-20T05:07:06;5;3;
69350;PMS7003;57106;51.446;-2.606;2023-12-20T05:09:31;4;1;
69350;PMS7003;57106;51.446;-2.606;2023-12-20T05:11:57;4;3;
69350;PMS7003;57106;51.446;-2.606;2023-12-20T05:14:22;5;1;
69350;PMS7003;57106;51.446;-2.606;2023-12-20T05:16:48;5;3;
69350;PMS7003;57106;51.446;-2.606;2023-12-20T05:19:13;1;1;
69350;PMS7003;57106;51.446;-2.606;2023-12-20T05:21:39;2;1;
69350;PMS7003;57106;51.446;-2.606;2023-12-20T05:24:05;3;3;
69350;PMS7003;57106;51.446;-2.606;2023-12-20T05:26:30;5;2;
69350;PMS7003;57106;51.446;-2.606;2023-12-20T05:28:56;3;3;
69350;PMS7003;57106;51.446;-2.606;2023-12-20T05:45:55;4;3;
69350;PMS7003;57106;51.446;-2.606;2023-12-20T05:48:21;2;2;
69350;PMS7003;57106;51.446;-2.606;2023-12-20T05:50:46;2;2;
69350;PMS7003;57106;51.446;-2.606;2023-12-20T05:53:12;2;2;
69350;PMS7003;57106;51.446;-2.606;2023-12-20T05:55:38;2;1;
69350;PMS7003;57106;51.446;-2.606;2023-12-20T05:58:03;3;2;
69350;PMS7003;57106;51.446;-2.606;2023-12-20T06:00:29;5;4;
69350;PMS7003;57106;51.446;-2.606;2023-12-20T06:02:55;2;1;
69350;PMS7003;57106;51.446;-2.606;2023-12-20T06:05:20;3;2;
69350;PMS7003;57106;51.446;-2.606;2023-12-20T06:07:46;2;2;
69350;PMS7003;57106;51.446;-2.606;2023-12-20T06:10:11;3;2;
69350;PMS7003;57106;51.446;-2.606;2023-12-20T06:12:37;3;1;
69350;PMS7003;57106;51.446;-2.606;2023-12-20T06:15:03;1;1;
69350;PMS7003;57106;51.446;-2.606;2023-12-20T06:17:28;2;1;
69350;PMS7003;57106;51.446;-2.606;2023-12-20T06:27:11;3;1;
69350;PMS7003;57106;51.446;-2.606;2023-12-20T06:29:36;2;1;
69350;PMS7003;57106;51.446;-2.606;2023-12-20T06:32:02;2;1;
69350;PMS7003;57106;51.446;-2.606;2023-12-20T06:34:28;3;3;
69350;PMS7003;57106;51.446;-2.606;2023-12-20T06:39:19;1;1;
69350;PMS7003;57106;51.446;-2.606;2023-12-20T06:41:45;4;2;
69350;PMS7003;57106;51.446;-2.606;2023-12-20T06:44:10;4;3;
69350;PMS7003;57106;51.446;-2.606;2023-12-20T06:49:01;2;1;
69350;PMS7003;57106;51.446;-2.606;2023-12-20T06:53:52;2;2;
69350;PMS7003;57106;51.446;-2.606;2023-12-20T06:58:44;2;1;
69350;PMS7003;57106;51.446;-2.606;2023-12-20T07:01:11;2;2;
69350;PMS7003;57106;51.446;-2.606;2023-12-20T07:03:35;3;2;
69350;PMS7003;57106;51.446;-2.606;2023-12-20T07:06:01;2;2;
69350;PMS7003;57106;51.446;-2.606;2023-12-20T07:08:26;2;1;
69350;PMS7003;57106;51.446;-2.606;2023-12-20T07:10:52;3;1;
69350;PMS7003;57106;51.446;-2.606;2023-12-20T07:13:18;2;2;
69350;PMS7003;57106;51.446;-2.606;2023-12-20T07:15:43;1;1;
69350;PMS7003;57106;51.446;-2.606;2023-12-20T07:18:08;2;2;
69350;PMS7003;57106;51.446;-2.606;2023-12-20T07:20:34;3;1;
69350;PMS7003;57106;51.446;-2.606;2023-12-20T07:23:00;2;2;
69350;PMS7003;57106;51.446;-2.606;2023-12-20T07:25:25;1;1;
69350;PMS7003;57106;51.446;-2.606;2023-12-20T07:27:51;3;0;
69350;PMS7003;57106;51.446;-2.606;2023-12-20T07:30:17;2;1;
69350;PMS7003;57106;51.446;-2.606;2023-12-20T07:37:33;1;1;
69350;PMS7003;57106;51.446;-2.606;2023-12-20T07:39:59;2;2;
69350;PMS7003;57106;51.446;-2.606;2023-12-20T07:42:25;0;0;
69350;PMS7003;57106;51.446;-2.606;2023-12-20T07:44:50;2;1;
69350;PMS7003;57106;51.446;-2.606;2023-12-20T07:47:16;2;1;
69350;PMS7003;57106;51.446;-2.606;2023-12-20T07:49:41;2;1;
69350;PMS7003;57106;51.446;-2.606;2023-12-20T07:52:07;1;1;
69350;PMS7003;57106;51.446;-2.606;2023-12-20T07:54:33;4;1;
69350;PMS7003;57106;51.446;-2.606;2023-12-20T07:56:58;5;2;
69350;PMS7003;57106;51.446;-2.606;2023-12-20T07:59:24;2;1;
69350;PMS7003;57106;51.446;-2.606;2023-12-20T08:01:49;4;1;
69350;PMS7003;57106;51.446;-2.606;2023-12-20T08:04:15;1;1;
69350;PMS7003;57106;51.446;-2.606;2023-12-20T08:06:40;1;1;
69350;PMS7003;57106;51.446;-2.606;2023-12-20T08:09:06;3;3;
69350;PMS7003;57106;51.446;-2.606;2023-12-20T08:11:32;1;0;
69350;PMS7003;57106;51.446;-2.606;2023-12-20T08:13:57;2;2;
69350;PMS7003;57106;51.446;-2.606;2023-12-20T08:16:23;2;1;
69350;PMS7003;57106;51.446;-2.606;2023-12-20T08:18:50;2;1;
69350;PMS7003;57106;51.446;-2.606;2023-12-20T08:21:14;1;1;
69350;PMS7003;57106;51.446;-2.606;2023-12-20T08:23:40;1;1;
69350;PMS7003;57106;51.446;-2.606;2023-12-20T08:26:05;1;1;
69350;PMS7003;57106;51.446;-2.606;2023-12-20T08:28:31;3;1;
69350;PMS7003;57106;51.446;-2.606;2023-12-20T08:30:56;3;1;
69350;PMS7003;57106;51.446;-2.606;2023-12-20T08:33:22;2;1;
69350;PMS7003;57106;51.446;-2.606;2023-12-20T08:35:48;2;1;
69350;PMS7003;57106;51.446;-2.606;2023-12-20T08:38:13;2;1;
69350;PMS7003;57106;51.446;-2.606;2023-12-20T08:40:39;1;1;
69350;PMS7003;57106;51.446;-2.606;2023-12-20T08:43:04;2;1;
69350;PMS7003;57106;51.446;-2.606;2023-12-20T08:45:30;1;1;
69350;PMS7003;57106;51.446;-2.606;2023-12-20T08:50:21;3;2;
69350;PMS7003;57106;51.446;-2.606;2023-12-20T08:52:46;3;1;
69350;PMS7003;57106;51.446;-2.606;2023-12-20T08:55:13;2;2;
69350;PMS7003;57106;51.446;-2.606;2023-12-20T08:57:38;2;2;
69350;PMS7003;57106;51.446;-2.606;2023-12-20T09:00:04;1;1;
69350;PMS7003;57106;51.446;-2.606;2023-12-20T09:02:29;3;1;
69350;PMS7003;57106;51.446;-2.606;2023-12-20T09:04:59;3;3;
69350;PMS7003;57106;51.446;-2.606;2023-12-20T09:07:21;0;0;
69350;PMS7003;57106;51.446;-2.606;2023-12-20T09:09:46;1;1;
69350;PMS7003;57106;51.446;-2.606;2023-12-20T09:12:11;1;1;
69350;PMS7003;57106;51.446;-2.606;2023-12-20T09:14:37;0;0;
69350;PMS7003;57106;51.446;-2.606;2023-12-20T09:17:02;2;2;
69350;PMS7003;57106;51.446;-2.606;2023-12-20T09:19:28;2;1;
69350;PMS7003;57106;51.446;-2.606;2023-12-20T09:21:53;0;0;
69350;PMS7003;57106;51.446;-2.606;2023-12-20T09:24:19;2;1;
69350;PMS7003;57106;51.446;-2.606;2023-12-20T09:26:44;1;1;
69350;PMS7003;57106;51.446;-2.606;2023-12-20T09:29:10;1;1;
69350;PMS7003;57106;51.446;-2.606;2023-12-20T09:31:36;3;1;
69350;PMS7003;57106;51.446;-2.606;2023-12-20T09:34:01;3;2;
69350;PMS7003;57106;51.446;-2.606;2023-12-20T09:36:27;1;1;
69350;PMS7003;57106;51.446;-2.606;2023-12-20T09:38:52;4;2;
69350;PMS7003;57106;51.446;-2.606;2023-12-20T09:41:18;2;1;
69350;PMS7003;57106;51.446;-2.606;2023-12-20T09:43:44;3;1;
69350;PMS7003;57106;51.446;-2.606;2023-12-20T09:46:09;0;0;
69350;PMS7003;57106;51.446;-2.606;2023-12-20T09:48:35;2;1;
69350;PMS7003;57106;51.446;-2.606;2023-12-20T09:51:00;1;1;
69350;PMS7003;57106;51.446;-2.606;2023-12-20T09:53:26;2;1;
69350;PMS7003;57106;51.446;-2.606;2023-12-20T09:55:51;3;2;
69350;PMS7003;57106;51.446;-2.606;2023-12-20T09:58:17;3;2;
69350;PMS7003;57106;51.446;-2.606;2023-12-20T10:05:34;4;2;
69350;PMS7003;57106;51.446;-2.606;2023-12-20T10:15:16;2;2;
69350;PMS7003;57106;51.446;-2.606;2023-12-20T10:17:41;2;2;
69350;PMS7003;57106;51.446;-2.606;2023-12-20T10:20:07;2;1;
69350;PMS7003;57106;51.446;-2.606;2023-12-20T10:22:33;2;1;
69350;PMS7003;57106;51.446;-2.606;2023-12-20T10:24:58;3;1;
69350;PMS7003;57106;51.446;-2.606;2023-12-20T10:27:24;1;1;
69350;PMS7003;57106;51.446;-2.606;2023-12-20T10:29:49;0;0;
69350;PMS7003;57106;51.446;-2.606;2023-12-20T10:32:22;0;0;
69350;PMS7003;57106;51.446;-2.606;2023-12-20T10:34:40;3;2;
69350;PMS7003;57106;51.446;-2.606;2023-12-20T10:37:06;1;1;
69350;PMS7003;57106;51.446;-2.606;2023-12-20T10:39:31;2;2;
69350;PMS7003;57106;51.446;-2.606;2023-12-20T10:41:57;10;7;
69350;PMS7003;57106;51.446;-2.606;2023-12-20T10:44:22;4;2;
69350;PMS7003;57106;51.446;-2.606;2023-12-20T10:46:48;1;1;
69350;PMS7003;57106;51.446;-2.606;2023-12-20T10:49:13;1;1;
69350;PMS7003;57106;51.446;-2.606;2023-12-20T10:51:39;4;3;
69350;PMS7003;57106;51.446;-2.606;2023-12-20T10:54:05;2;2;
69350;PMS7003;57106;51.446;-2.606;2023-12-20T10:56:31;0;0;
69350;PMS7003;57106;51.446;-2.606;2023-12-20T10:59:02;4;2;
69350;PMS7003;57106;51.446;-2.606;2023-12-20T11:01:21;2;2;
69350;PMS7003;57106;51.446;-2.606;2023-12-20T11:03:49;2;2;
69350;PMS7003;57106;51.446;-2.606;2023-12-20T11:06:16;3;3;
69350;PMS7003;57106;51.446;-2.606;2023-12-20T11:08:39;3;2;
69350;PMS7003;57106;51.446;-2.606;2023-12-20T11:11:04;2;2;
69350;PMS7003;57106;51.446;-2.606;2023-12-20T11:13:31;3;3;
69350;PMS7003;57106;51.446;-2.606;2023-12-20T11:23:12;2;2;
69350;PMS7003;57106;51.446;-2.606;2023-12-20T11:25:46;1;1;
69350;PMS7003;57106;51.446;-2.606;2023-12-20T11:28:08;3;2;
69350;PMS7003;57106;51.446;-2.606;2023-12-20T11:30:28;2;2;
69350;PMS7003;57106;51.446;-2.606;2023-12-20T11:33:02;2;1;
69350;PMS7003;57106;51.446;-2.606;2023-12-20T11:35:21;1;1;
69350;PMS7003;57106;51.446;-2.606;2023-12-20T11:37:45;1;1;
69350;PMS7003;57106;51.446;-2.606;2023-12-20T11:40:11;2;2;
69350;PMS7003;57106;51.446;-2.606;2023-12-20T11:42:37;4;2;
69350;PMS7003;57106;51.446;-2.606;2023-12-20T11:45:01;0;0;
69350;PMS7003;57106;51.446;-2.606;2023-12-20T11:47:27;0;0;
69350;PMS7003;57106;51.446;-2.606;2023-12-20T11:49:52;0;0;
69350;PMS7003;57106;51.446;-2.606;2023-12-20T11:52:19;1;1;
69350;PMS7003;57106;51.446;-2.606;2023-12-20T11:54:43;2;2;
69350;PMS7003;57106;51.446;-2.606;2023-12-20T11:57:09;2;2;
69350;PMS7003;57106;51.446;-2.606;2023-12-20T11:59:34;5;2;
69350;PMS7003;57106;51.446;-2.606;2023-12-20T12:02:00;2;2;
69350;PMS7003;57106;51.446;-2.606;2023-12-20T12:04:25;3;1;
69350;PMS7003;57106;51.446;-2.606;2023-12-20T12:06:51;6;2;
69350;PMS7003;57106;51.446;-2.606;2023-12-20T12:09:16;2;2;
69350;PMS7003;57106;51.446;-2.606;2023-12-20T12:11:42;4;3;
69350;PMS7003;57106;51.446;-2.606;2023-12-20T12:14:08;1;1;
69350;PMS7003;57106;51.446;-2.606;2023-12-20T12:16:33;2;2;
69350;PMS7003;57106;51.446;-2.606;2023-12-20T12:18:58;2;1;
69350;PMS7003;57106;51.446;-2.606;2023-12-20T12:21:24;4;2;
69350;PMS7003;57106;51.446;-2.606;2023-12-20T12:23:50;1;1;
69350;PMS7003;57106;51.446;-2.606;2023-12-20T12:26:20;2;0;
69350;PMS7003;57106;51.446;-2.606;2023-12-20T12:28:41;2;1;
69350;PMS7003;57106;51.446;-2.606;2023-12-20T12:31:06;3;2;
69350;PMS7003;57106;51.446;-2.606;2023-12-20T12:38:23;1;1;
69350;PMS7003;57106;51.446;-2.606;2023-12-20T12:40:49;3;2;
69350;PMS7003;57106;51.446;-2.606;2023-12-20T12:43:14;3;2;
69350;PMS7003;57106;51.446;-2.606;2023-12-20T12:45:40;1;0;
69350;PMS7003;57106;51.446;-2.606;2023-12-20T12:48:05;1;1;
69350;PMS7003;57106;51.446;-2.606;2023-12-20T12:50:30;2;1;
69350;PMS7003;57106;51.446;-2.606;2023-12-20T12:52:56;2;0;
69350;PMS7003;57106;51.446;-2.606;2023-12-20T12:55:22;0;0;
69350;PMS7003;57106;51.446;-2.606;2023-12-20T12:57:47;0;0;
69350;PMS7003;57106;51.446;-2.606;2023-12-20T13:00:13;2;2;
69350;PMS7003;57106;51.446;-2.606;2023-12-20T13:02:38;2;0;
69350;PMS7003;57106;51.446;-2.606;2023-12-20T13:05:05;2;2;
69350;PMS7003;57106;51.446;-2.606;2023-12-20T13:07:29;3;2;
69350;PMS7003;57106;51.446;-2.606;2023-12-20T13:09:55;2;1;
69350;PMS7003;57106;51.446;-2.606;2023-12-20T13:12:20;0;0;
69350;PMS7003;57106;51.446;-2.606;2023-12-20T13:17:11;0;0;
69350;PMS7003;57106;51.446;-2.606;2023-12-20T13:19:37;0;0;
69350;PMS7003;57106;51.446;-2.606;2023-12-20T13:22:02;1;0;
69350;PMS7003;57106;51.446;-2.606;2023-12-20T13:24:28;3;1;
69350;PMS7003;57106;51.446;-2.606;2023-12-20T13:26:53;2;2;
69350;PMS7003;57106;51.446;-2.606;2023-12-20T13:29:21;4;2;
69350;PMS7003;57106;51.446;-2.606;2023-12-20T13:31:44;2;1;
69350;PMS7003;57106;51.446;-2.606;2023-12-20T13:34:10;1;1;
69350;PMS7003;57106;51.446;-2.606;2023-12-20T13:36:35;2;0;
69350;PMS7003;57106;51.446;-2.606;2023-12-20T13:41:27;2;1;
69350;PMS7003;57106;51.446;-2.606;2023-12-20T14:00:52;3;0;
69350;PMS7003;57106;51.446;-2.606;2023-12-20T14:03:16;2;2;
69350;PMS7003;57106;51.446;-2.606;2023-12-20T14:05:44;1;1;
69350;PMS7003;57106;51.446;-2.606;2023-12-20T14:10:33;2;2;
69350;PMS7003;57106;51.446;-2.606;2023-12-20T14:12:59;3;1;
69350;PMS7003;57106;51.446;-2.606;2023-12-20T14:15:24;1;1;
69350;PMS7003;57106;51.446;-2.606;2023-12-20T14:17:55;2;2;
69350;PMS7003;57106;51.446;-2.606;2023-12-20T14:20:15;3;2;
69350;PMS7003;57106;51.446;-2.606;2023-12-20T14:22:41;3;1;
69350;PMS7003;57106;51.446;-2.606;2023-12-20T14:25:07;5;3;
69350;PMS7003;57106;51.446;-2.606;2023-12-20T14:27:37;2;2;
69350;PMS7003;57106;51.446;-2.606;2023-12-20T14:29:57;1;1;
69350;PMS7003;57106;51.446;-2.606;2023-12-20T14:32:23;3;2;
69350;PMS7003;57106;51.446;-2.606;2023-12-20T14:34:48;3;1;
69350;PMS7003;57106;51.446;-2.606;2023-12-20T14:37:14;5;3;
69350;PMS7003;57106;51.446;-2.606;2023-12-20T14:39:39;4;3;
69350;PMS7003;57106;51.446;-2.606;2023-12-20T14:42:07;3;2;
69350;PMS7003;57106;51.446;-2.606;2023-12-20T14:44:30;3;2;
69350;PMS7003;57106;51.446;-2.606;2023-12-20T14:46:56;3;2;
69350;PMS7003;57106;51.446;-2.606;2023-12-20T14:59:04;5;2;
69350;PMS7003;57106;51.446;-2.606;2023-12-20T16:31:10;7;5;
69350;PMS7003;57106;51.446;-2.606;2023-12-20T16:33:34;9;5;
69350;PMS7003;57106;51.446;-2.606;2023-12-20T16:36:00;5;3;
69350;PMS7003;57106;51.446;-2.606;2023-12-20T16:38:25;9;6;
69350;PMS7003;57106;51.446;-2.606;2023-12-20T16:40:51;6;4;
69350;PMS7003;57106;51.446;-2.606;2023-12-20T16:43:17;5;3;
69350;PMS7003;57106;51.446;-2.606;2023-12-20T16:45:41;4;4;
69350;PMS7003;57106;51.446;-2.606;2023-12-20T16:48:09;48;46;
69350;PMS7003;57106;51.446;-2.606;2023-12-20T16:50:32;16;14;
69350;PMS7003;57106;51.446;-2.606;2023-12-20T16:52:57;15;15;
69350;PMS7003;57106;51.446;-2.606;2023-12-20T16:55:23;9;6;
69350;PMS7003;57106;51.446;-2.606;2023-12-20T16:57:48;6;4;
69350;PMS7003;57106;51.446;-2.606;2023-12-20T17:00:25;10;7;
69350;PMS7003;57106;51.446;-2.606;2023-12-20T17:02:39;9;8;
69350;PMS7003;57106;51.446;-2.606;2023-12-20T17:05:04;9;7;
69350;PMS7003;57106;51.446;-2.606;2023-12-20T17:07:30;10;7;
69350;PMS7003;57106;51.446;-2.606;2023-12-20T17:09:55;13;7;
69350;PMS7003;57106;51.446;-2.606;2023-12-20T17:12:21;7;7;
69350;PMS7003;57106;51.446;-2.606;2023-12-20T17:14:46;17;10;
69350;PMS7003;57106;51.446;-2.606;2023-12-20T17:17:11;8;7;
69350;PMS7003;57106;51.446;-2.606;2023-12-20T17:19:39;12;9;
69350;PMS7003;57106;51.446;-2.606;2023-12-20T17:22:03;11;10;
69350;PMS7003;57106;51.446;-2.606;2023-12-20T17:24:28;9;8;
69350;PMS7003;57106;51.446;-2.606;2023-12-20T17:26:54;14;10;
69350;PMS7003;57106;51.446;-2.606;2023-12-20T17:29:19;11;6;
69350;PMS7003;57106;51.446;-2.606;2023-12-20T17:31:45;14;11;
69350;PMS7003;57106;51.446;-2.606;2023-12-20T17:34:11;14;11;
69350;PMS7003;57106;51.446;-2.606;2023-12-20T17:36:41;10;9;
69350;PMS7003;57106;51.446;-2.606;2023-12-20T17:39:02;15;11;
69350;PMS7003;57106;51.446;-2.606;2023-12-20T17:41:27;14;10;
69350;PMS7003;57106;51.446;-2.606;2023-12-20T17:43:57;12;7;
69350;PMS7003;57106;51.446;-2.606;2023-12-20T17:46:18;7;6;
69350;PMS7003;57106;51.446;-2.606;2023-12-20T17:48:44;13;9;
69350;PMS7003;57106;51.446;-2.606;2023-12-20T17:51:09;7;6;
69350;PMS7003;57106;51.446;-2.606;2023-12-20T17:53:35;11;8;
69350;PMS7003;57106;51.446;-2.606;2023-12-20T17:56:00;8;7;
69350;PMS7003;57106;51.446;-2.606;2023-12-20T17:58:25;9;8;
69350;PMS7003;57106;51.446;-2.606;2023-12-20T18:00:51;8;5;
69350;PMS7003;57106;51.446;-2.606;2023-12-20T18:03:17;7;7;
69350;PMS7003;57106;51.446;-2.606;2023-12-20T18:05:42;9;7;
69350;PMS7003;57106;51.446;-2.606;2023-12-20T18:08:08;14;11;
69350;PMS7003;57106;51.446;-2.606;2023-12-20T18:10:36;13;9;
69350;PMS7003;57106;51.446;-2.606;2023-12-20T18:12:59;11;7;
69350;PMS7003;57106;51.446;-2.606;2023-12-20T18:15:24;11;9;
69350;PMS7003;57106;51.446;-2.606;2023-12-20T18:17:50;8;7;
69350;PMS7003;57106;51.446;-2.606;2023-12-20T18:20:15;8;8;
69350;PMS7003;57106;51.446;-2.606;2023-12-20T18:22:41;8;7;
69350;PMS7003;57106;51.446;-2.606;2023-12-20T18:25:06;10;9;
69350;PMS7003;57106;51.446;-2.606;2023-12-20T18:27:30;12;10;
69350;PMS7003;57106;51.446;-2.606;2023-12-20T18:29:56;12;10;
69350;PMS7003;57106;51.446;-2.606;2023-12-20T18:32:21;10;6;
69350;PMS7003;57106;51.446;-2.606;2023-12-20T18:34:47;11;5;
69350;PMS7003;57106;51.446;-2.606;2023-12-20T18:37:18;10;9;
69350;PMS7003;57106;51.446;-2.606;2023-12-20T18:39:38;11;7;
69350;PMS7003;57106;51.446;-2.606;2023-12-20T18:42:04;11;8;
69350;PMS7003;57106;51.446;-2.606;2023-12-20T18:44:32;13;9;
69350;PMS7003;57106;51.446;-2.606;2023-12-20T18:46:55;10;8;
69350;PMS7003;57106;51.446;-2.606;2023-12-20T18:49:20;9;6;
69350;PMS7003;57106;51.446;-2.606;2023-12-20T18:51:46;10;8;
69350;PMS7003;57106;51.446;-2.606;2023-12-20T18:59:03;8;7;
69350;PMS7003;57106;51.446;-2.606;2023-12-20T19:03:53;13;12;
69350;PMS7003;57106;51.446;-2.606;2023-12-20T19:06:20;9;6;
69350;PMS7003;57106;51.446;-2.606;2023-12-20T19:08:45;11;6;
69350;PMS7003;57106;51.446;-2.606;2023-12-20T19:11:16;9;8;
69350;PMS7003;57106;51.446;-2.606;2023-12-20T19:13:36;12;8;
69350;PMS7003;57106;51.446;-2.606;2023-12-20T19:16:01;7;6;
69350;PMS7003;57106;51.446;-2.606;2023-12-20T19:18:32;9;5;
69350;PMS7003;57106;51.446;-2.606;2023-12-20T19:20:52;7;5;
69350;PMS7003;57106;51.446;-2.606;2023-12-20T19:25:44;7;7;
69350;PMS7003;57106;51.446;-2.606;2023-12-20T19:30:34;14;9;
69350;PMS7003;57106;51.446;-2.606;2023-12-20T19:33:00;9;9;
69350;PMS7003;57106;51.446;-2.606;2023-12-20T19:35:35;7;4;
69350;PMS7003;57106;51.446;-2.606;2023-12-20T19:37:52;6;5;
69350;PMS7003;57106;51.446;-2.606;2023-12-20T19:40:16;5;4;
69350;PMS7003;57106;51.446;-2.606;2023-12-20T19:42:42;10;8;
69350;PMS7003;57106;51.446;-2.606;2023-12-20T19:45:08;5;3;
69350;PMS7003;57106;51.446;-2.606;2023-12-20T19:47:38;5;5;
69350;PMS7003;57106;51.446;-2.606;2023-12-20T19:49:58;8;5;
69350;PMS7003;57106;51.446;-2.606;2023-12-20T19:52:24;6;4;
69350;PMS7003;57106;51.446;-2.606;2023-12-20T19:54:50;2;2;
69350;PMS7003;57106;51.446;-2.606;2023-12-20T19:57:15;7;5;
69350;PMS7003;57106;51.446;-2.606;2023-12-20T19:59:41;5;5;
69350;PMS7003;57106;51.446;-2.606;2023-12-20T20:02:07;5;4;
69350;PMS7003;57106;51.446;-2.606;2023-12-20T20:04:32;6;6;
69350;PMS7003;57106;51.446;-2.606;2023-12-20T20:06:57;6;4;
69350;PMS7003;57106;51.446;-2.606;2023-12-20T20:16:40;7;4;